»·PEaware :: N751LU F62-KTMK

N751LU :: F62-KTMK

FLIGHT INFORMATION

Flight Status: Arrived
Operator: Privately registered:
United States
More flights under this callsign
Pilot: Ewen S. (18928)
Aircraft: SOCATA TBM-900
(TBM9)
More flights by this aircraft type
Origin: F62 Hayfork
United States
Destination: KTMK Tillamook
United States
More flights between these airports :: More routes between these airports
Route: +CEC V27 ULKAW
File this flight plan on PilotEdge
Remarks:
Altitude:
(Current/Filed)
28,000ft
Speed:
(Current/Filed)
325kts
Departed: 10-Oct-20 10:46 AM
Arrived: 10-Oct-20 12:15 PM
Distance/Time
Traveled:
294nm/1:29
Distance/Time
To Go:
Arrived

Flight Plot

Page will automatically refresh every two minutes.

Flight plan parsing failed; only flown route is shown


Map Options




Map Legend


Flown Route
Filed Route
Departure Airport
Arrival Airport
Navaid (VOR, NDB)
Fix

Horizontal Profiles

Position Reports

Time Latitude Longitude Heading Altitude Ground
Speed
10-Oct-20 10:35 40.547955 -123.178070 177 2323ft 0kts
10-Oct-20 10:36 40.547955 -123.178070 177 2323ft 0kts
10-Oct-20 10:37 40.547954 -123.178070 177 2323ft 0kts
10-Oct-20 10:38 40.547954 -123.178070 177 2323ft 0kts
10-Oct-20 10:39 40.547954 -123.178070 177 2323ft 0kts
10-Oct-20 10:40 40.547954 -123.178070 177 2323ft 0kts
10-Oct-20 10:41 40.547955 -123.178070 177 2323ft 0kts
10-Oct-20 10:42 40.547823 -123.177957 109 2323ft 7kts
10-Oct-20 10:43 40.547569 -123.174068 89 2323ft 10kts
10-Oct-20 10:44 40.547363 -123.172409 137 2323ft 0kts
10-Oct-20 10:45 40.546277 -123.196342 259 2623ft 127kts
10-Oct-20 10:46 40.514520 -123.201154 142 4439ft 150kts
10-Oct-20 10:47 40.498568 -123.145567 97 5415ft 175kts
10-Oct-20 10:48 40.494782 -123.084484 97 7689ft 164kts
10-Oct-20 10:49 40.489015 -123.023149 104 9446ft 172kts
10-Oct-20 10:50 40.474542 -122.960655 118 11026ft 181kts
10-Oct-20 10:51 40.446586 -122.913939 204 12392ft 150kts
10-Oct-20 10:52 40.446643 -122.958894 295 13658ft 146kts
10-Oct-20 10:53 40.468628 -123.005727 294 15040ft 150kts
10-Oct-20 10:55 40.490655 -123.052382 295 16372ft 149kts
10-Oct-20 10:56 40.515132 -123.104156 295 17444ft 154kts
10-Oct-20 10:57 40.533392 -123.142877 295 19178ft 118kts
10-Oct-20 10:58 40.554157 -123.187051 296 20658ft 147kts
10-Oct-20 10:59 40.575496 -123.232383 298 22753ft 143kts
10-Oct-20 11:00 40.596512 -123.277144 299 24554ft 145kts
10-Oct-20 11:01 40.617060 -123.320918 301 26796ft 136kts
10-Oct-20 11:02 40.640436 -123.361546 321 28058ft 169kts
10-Oct-20 11:03 40.687119 -123.396914 321 28044ft 209kts
10-Oct-20 11:04 40.739688 -123.436763 321 28031ft 221kts
10-Oct-20 11:05 40.793986 -123.477975 322 28024ft 224kts
10-Oct-20 11:06 40.848546 -123.519487 322 28027ft 225kts
10-Oct-20 11:07 40.903258 -123.561234 321 28012ft 225kts
10-Oct-20 11:08 40.957727 -123.602847 321 28021ft 223kts
10-Oct-20 11:09 41.011846 -123.644279 321 28020ft 222kts
10-Oct-20 11:10 41.065871 -123.685734 320 28035ft 223kts
10-Oct-20 11:10 41.110498 -123.720027 320 28046ft 223kts
10-Oct-20 11:12 41.174152 -123.769046 320 28045ft 224kts
10-Oct-20 11:12 41.220137 -123.804516 320 28043ft 224kts
10-Oct-20 11:13 41.274003 -123.846140 320 28043ft 223kts
10-Oct-20 11:14 41.328339 -123.888213 319 28040ft 222kts
10-Oct-20 11:15 41.382188 -123.930004 319 28036ft 221kts
10-Oct-20 11:16 41.435840 -123.971708 319 28016ft 220kts
10-Oct-20 11:17 41.483038 -124.008483 319 28031ft 218kts
10-Oct-20 11:18 41.536863 -124.050468 319 28022ft 218kts
10-Oct-20 11:19 41.590633 -124.092506 319 28026ft 217kts
10-Oct-20 11:20 41.645640 -124.135645 320 26768ft 240kts
10-Oct-20 11:21 41.705914 -124.182936 320 25127ft 256kts
10-Oct-20 11:22 41.768831 -124.232375 320 24021ft 253kts
10-Oct-20 11:23 41.842360 -124.238124 347 24020ft 265kts
10-Oct-20 11:24 41.915553 -124.234957 347 24021ft 259kts
10-Oct-20 11:25 41.986066 -124.231911 347 23952ft 248kts
10-Oct-20 11:26 42.056683 -124.228849 347 24024ft 253kts
10-Oct-20 11:27 42.128006 -124.225734 347 24029ft 256kts
10-Oct-20 11:28 42.200080 -124.222582 347 24028ft 258kts
10-Oct-20 11:29 42.272128 -124.219425 347 24027ft 258kts
10-Oct-20 11:30 42.345011 -124.216208 347 24027ft 259kts
10-Oct-20 11:31 42.417790 -124.213025 347 24026ft 259kts
10-Oct-20 11:32 42.490917 -124.209804 347 24026ft 259kts
10-Oct-20 11:33 42.563869 -124.206595 346 24015ft 260kts
10-Oct-20 11:34 42.637391 -124.203377 347 24016ft 266kts
10-Oct-20 11:35 42.712643 -124.200038 347 24015ft 270kts
10-Oct-20 11:36 42.788692 -124.196659 347 24014ft 271kts
10-Oct-20 11:37 42.865020 -124.193265 347 24013ft 272kts
10-Oct-20 11:38 42.941809 -124.189845 347 24013ft 273kts
10-Oct-20 11:39 43.018750 -124.186413 347 24013ft 275kts
10-Oct-20 11:40 43.096187 -124.182948 347 24013ft 276kts
10-Oct-20 11:41 43.173487 -124.179471 347 24017ft 278kts
10-Oct-20 11:42 43.251640 -124.175939 347 24015ft 280kts
10-Oct-20 11:43 43.330538 -124.172375 347 24016ft 282kts
10-Oct-20 11:44 43.409810 -124.168786 347 24016ft 283kts
10-Oct-20 11:45 43.490124 -124.161715 349 24016ft 287kts
10-Oct-20 11:46 43.570975 -124.154307 349 24011ft 289kts
10-Oct-20 11:47 43.651654 -124.146898 349 24002ft 291kts
10-Oct-20 11:48 43.733254 -124.139383 349 23988ft 292kts
10-Oct-20 11:49 43.815085 -124.131823 349 23969ft 293kts
10-Oct-20 11:50 43.897642 -124.124175 349 23961ft 294kts
10-Oct-20 11:51 43.981125 -124.116481 350 23333ft 304kts
10-Oct-20 11:52 44.067067 -124.108469 350 21962ft 310kts
10-Oct-20 11:53 44.154900 -124.100252 351 20565ft 315kts
10-Oct-20 11:54 44.243748 -124.091925 352 19155ft 318kts
10-Oct-20 11:55 44.333643 -124.083477 353 17729ft 321kts
10-Oct-20 11:56 44.420843 -124.075243 354 16343ft 322kts
10-Oct-20 11:57 44.507195 -124.067044 354 14956ft 304kts
10-Oct-20 11:58 44.590562 -124.058935 355 13628ft 295kts
10-Oct-20 11:59 44.672574 -124.049861 356 12324ft 291kts
10-Oct-20 12:00 44.753914 -124.040856 356 11024ft 288kts
10-Oct-20 12:01 44.831484 -124.032211 357 9768ft 266kts
10-Oct-20 12:02 44.904156 -124.024091 358 8601ft 254kts
10-Oct-20 12:03 44.973168 -124.016344 357 8029ft 233kts
10-Oct-20 12:04 45.036243 -124.009277 357 8036ft 220kts
10-Oct-20 12:05 45.097685 -124.002370 357 8039ft 219kts
10-Oct-20 12:06 45.158816 -123.981456 18 7687ft 243kts
10-Oct-20 12:07 45.223394 -123.939949 18 6706ft 256kts
10-Oct-20 12:08 45.288522 -123.898103 18 5246ft 249kts
10-Oct-20 12:09 45.351437 -123.857542 18 3524ft 242kts
10-Oct-20 12:10 45.411760 -123.841898 341 1664ft 176kts
10-Oct-20 12:11 45.450252 -123.859296 355 1428ft 133kts
10-Oct-20 12:12 45.457094 -123.823904 188 896ft 98kts
10-Oct-20 12:13 45.427455 -123.820902 160 140ft 102kts
10-Oct-20 12:14 45.413379 -123.811967 155 39ft 39kts
10-Oct-20 12:15 45.413978 -123.814318 319 39ft 19kts
10-Oct-20 12:16 45.416137 -123.816799 347 39ft 18kts
10-Oct-20 12:17 45.418456 -123.818232 85 39ft 0kts

Navigation Log

Ident Type
Flight plan parsing failed, navigation log unavailable